Time;durP1;ratioP1;P1;durP2;ratioP2;P2;SDS_P1;SDS_P2;PMS_P1;PMS_P2;Temp;Humidity;BMP_temperature;BMP_pressure;BME280_temperature;BME280_humidity;BME280_pressure;Samples;Min_cycle;Max_cycle;Signal;HPM_P1;HPM_P2
2021/06/18 00:02:18;;;;;;;13.52;7.63;;;;;;;;;;5048693;28;20028;-66
2021/06/18 00:04:45;;;;;;;14.82;7.22;;;;;;;;;;5047506;28;20480;-67
2021/06/18 00:07:11;;;;;;;13.88;7.03;;;;;;;;;;5043928;28;20091;-67
2021/06/18 00:09:37;;;;;;;11.57;7.38;;;;;;;;;;5047933;28;20439;-67
2021/06/18 00:12:04;;;;;;;15.55;7.50;;;;;;;;;;5043253;28;20104;-67
2021/06/18 00:14:30;;;;;;;14.35;7.00;;;;;;;;;;5048234;28;20033;-66
2021/06/18 00:16:56;;;;;;;13.07;7.65;;;;;;;;;;5046560;28;20108;-67
2021/06/18 00:19:22;;;;;;;15.38;7.22;;;;;;;;;;5051194;28;20119;-66
2021/06/18 00:21:48;;;;;;;16.17;7.65;;;;;;;;;;5041938;28;20017;-67
2021/06/18 00:24:14;;;;;;;15.00;7.20;;;;;;;;;;5043428;28;20074;-67
2021/06/18 00:26:40;;;;;;;13.05;7.78;;;;;;;;;;5046526;28;20056;-67
2021/06/18 00:29:06;;;;;;;14.65;8.15;;;;;;;;;;5040573;28;20386;-67
2021/06/18 00:31:32;;;;;;;14.77;7.13;;;;;;;;;;5042851;28;20028;-66
2021/06/18 00:33:58;;;;;;;12.60;7.47;;;;;;;;;;5033394;28;20515;-66
2021/06/18 00:36:24;;;;;;;18.55;7.70;;;;;;;;;;5047709;28;20061;-66
2021/06/18 00:38:50;;;;;;;14.88;8.18;;;;;;;;;;5046169;28;20029;-67
2021/06/18 00:41:16;;;;;;;15.90;8.10;;;;;;;;;;5045965;28;20033;-66
2021/06/18 00:43:43;;;;;;;12.88;8.45;;;;;;;;;;5041398;28;20123;-67
2021/06/18 00:46:09;;;;;;;14.20;8.07;;;;;;;;;;5048539;28;20483;-67
2021/06/18 00:48:35;;;;;;;15.75;8.57;;;;;;;;;;5044042;28;20056;-66
2021/06/18 00:51:02;;;;;;;14.80;7.45;;;;;;;;;;5043600;28;20030;-66
2021/06/18 00:53:28;;;;;;;13.02;7.15;;;;;;;;;;5044327;28;20053;-66
2021/06/18 00:55:54;;;;;;;12.85;7.55;;;;;;;;;;5041501;28;20538;-66
2021/06/18 00:58:20;;;;;;;13.57;8.10;;;;;;;;;;5042427;28;20405;-66
2021/06/18 01:00:47;;;;;;;16.23;7.93;;;;;;;;;;5042595;28;20494;-67
2021/06/18 01:03:13;;;;;;;15.85;8.50;;;;;;;;;;5045969;28;20296;-67
2021/06/18 01:05:39;;;;;;;14.43;8.45;;;;;;;;;;5046501;28;20063;-66
2021/06/18 01:08:08;;;;;;;12.70;7.72;;;;;;;;;;5045930;28;20033;-67
2021/06/18 01:10:39;;;;;;;16.60;8.05;;;;;;;;;;5041972;28;20018;-66
2021/06/18 01:13:25;;;;;;;15.77;7.65;;;;;;;;;;5043658;28;20029;-67
2021/06/18 01:16:09;;;;;;;14.15;8.05;;;;;;;;;;5032993;28;20109;-67
2021/06/18 01:18:44;;;;;;;13.40;8.40;;;;;;;;;;5047459;28;20048;-66
2021/06/18 01:21:20;;;;;;;15.30;8.57;;;;;;;;;;5044356;28;20029;-66
2021/06/18 01:23:54;;;;;;;16.63;10.52;;;;;;;;;;5044969;28;20072;-67
2021/06/18 01:26:23;;;;;;;16.33;9.38;;;;;;;;;;5038405;28;20025;-67
2021/06/18 01:28:52;;;;;;;17.27;8.82;;;;;;;;;;5048234;28;20033;-67
2021/06/18 01:31:20;;;;;;;15.83;8.50;;;;;;;;;;5048662;28;20095;-67
2021/06/18 01:33:50;;;;;;;16.42;9.95;;;;;;;;;;5043581;28;20041;-67
2021/06/18 01:36:17;;;;;;;18.27;10.15;;;;;;;;;;5040537;28;20528;-67
2021/06/18 01:38:46;;;;;;;16.23;9.82;;;;;;;;;;5046787;28;20040;-67
2021/06/18 01:41:14;;;;;;;14.93;10.20;;;;;;;;;;5032270;28;20075;-67
2021/06/18 01:43:42;;;;;;;16.30;9.70;;;;;;;;;;5036926;28;20087;-66
2021/06/18 01:46:10;;;;;;;17.85;9.95;;;;;;;;;;5040116;28;20060;-67
2021/06/18 01:48:37;;;;;;;20.05;10.00;;;;;;;;;;5047206;28;20094;-67
2021/06/18 01:51:04;;;;;;;19.48;10.40;;;;;;;;;;5049286;28;20376;-68
2021/06/18 01:53:32;;;;;;;17.08;9.90;;;;;;;;;;5043806;28;20033;-67
2021/06/18 01:55:58;;;;;;;17.23;10.55;;;;;;;;;;5044067;28;20078;-67
2021/06/18 01:58:25;;;;;;;20.10;10.68;;;;;;;;;;5046352;28;20149;-67
2021/06/18 02:00:52;;;;;;;18.98;10.00;;;;;;;;;;5049299;28;20021;-67
2021/06/18 02:03:19;;;;;;;16.50;9.43;;;;;;;;;;5041692;28;20465;-67
2021/06/18 02:05:46;;;;;;;14.32;9.40;;;;;;;;;;5040750;28;20602;-67
2021/06/18 02:08:13;;;;;;;17.75;9.85;;;;;;;;;;5045845;28;20712;-66
2021/06/18 02:10:42;;;;;;;16.15;10.02;;;;;;;;;;5044012;28;20532;-67
2021/06/18 02:13:09;;;;;;;17.60;10.50;;;;;;;;;;5044975;28;20825;-67
2021/06/18 02:15:36;;;;;;;20.20;10.88;;;;;;;;;;5044872;28;20458;-66
2021/06/18 02:18:03;;;;;;;15.57;10.75;;;;;;;;;;5046812;28;20047;-66
2021/06/18 02:20:30;;;;;;;18.25;12.60;;;;;;;;;;5049853;28;20024;-67
2021/06/18 02:22:56;;;;;;;18.90;11.27;;;;;;;;;;5050350;28;20029;-67
2021/06/18 02:25:22;;;;;;;17.40;11.68;;;;;;;;;;5049625;28;20051;-67
2021/06/18 02:27:49;;;;;;;15.73;10.40;;;;;;;;;;5051753;28;20102;-67
2021/06/18 02:30:15;;;;;;;19.98;12.13;;;;;;;;;;5049613;28;20198;-67
2021/06/18 02:32:43;;;;;;;20.25;11.65;;;;;;;;;;5051611;28;20056;-67
2021/06/18 02:35:09;;;;;;;21.08;12.50;;;;;;;;;;5047482;28;20099;-67
2021/06/18 02:37:35;;;;;;;19.75;12.23;;;;;;;;;;5050673;28;20025;-66
2021/06/18 02:40:01;;;;;;;22.30;13.88;;;;;;;;;;5048577;28;20048;-67
2021/06/18 02:42:28;;;;;;;20.98;12.55;;;;;;;;;;5049365;28;20029;-67
2021/06/18 02:44:54;;;;;;;18.67;13.98;;;;;;;;;;5043264;28;20124;-67
2021/06/18 02:47:39;;;;;;;18.83;13.13;;;;;;;;;;5042077;28;20072;-67
2021/06/18 02:50:08;;;;;;;20.83;13.18;;;;;;;;;;5038601;28;20040;-67
2021/06/18 02:52:53;;;;;;;20.98;13.90;;;;;;;;;;5048849;28;20029;-66
2021/06/18 02:55:21;;;;;;;20.25;12.70;;;;;;;;;;5043177;28;20032;-67
2021/06/18 02:57:55;;;;;;;19.40;13.52;;;;;;;;;;5048211;28;20408;-66
2021/06/18 03:00:22;;;;;;;19.98;12.20;;;;;;;;;;5042234;28;20040;-67
2021/06/18 03:02:56;;;;;;;20.00;13.00;;;;;;;;;;5044064;28;20036;-67
2021/06/18 03:05:23;;;;;;;20.58;12.90;;;;;;;;;;5041955;28;20454;-66
2021/06/18 03:07:54;;;;;;;16.98;12.30;;;;;;;;;;5048419;28;20040;-67
2021/06/18 03:10:25;;;;;;;17.70;12.57;;;;;;;;;;5041832;28;20479;-67
2021/06/18 03:12:51;;;;;;;18.80;12.68;;;;;;;;;;5037255;28;20022;-67
2021/06/18 03:15:18;;;;;;;18.83;12.57;;;;;;;;;;5051168;28;20092;-67
2021/06/18 03:17:45;;;;;;;19.05;12.77;;;;;;;;;;5036363;28;20029;-67
2021/06/18 03:20:21;;;;;;;18.23;12.15;;;;;;;;;;5039681;28;20052;-66
2021/06/18 03:22:50;;;;;;;17.20;12.07;;;;;;;;;;5057236;28;20510;-67
2021/06/18 03:25:16;;;;;;;20.13;11.73;;;;;;;;;;5040020;28;20040;-66
2021/06/18 03:27:43;;;;;;;20.27;11.98;;;;;;;;;;5049365;28;20037;-67
2021/06/18 03:30:09;;;;;;;20.65;11.88;;;;;;;;;;5048331;28;20025;-67
2021/06/18 03:32:37;;;;;;;18.92;12.48;;;;;;;;;;5040634;28;20074;-67
2021/06/18 03:35:04;;;;;;;19.45;12.57;;;;;;;;;;5038388;28;20106;-67
2021/06/18 03:37:30;;;;;;;19.33;13.27;;;;;;;;;;5045636;28;20083;-67
2021/06/18 03:39:57;;;;;;;21.95;13.20;;;;;;;;;;5040328;28;20035;-67
2021/06/18 03:42:25;;;;;;;24.08;13.77;;;;;;;;;;5050181;28;20028;-67
2021/06/18 03:44:52;;;;;;;20.48;13.73;;;;;;;;;;5048036;28;20033;-67
2021/06/18 03:47:19;;;;;;;19.73;13.00;;;;;;;;;;5044078;28;20037;-67
2021/06/18 03:49:45;;;;;;;21.05;13.38;;;;;;;;;;5041847;28;20033;-67
2021/06/18 03:52:12;;;;;;;22.25;13.68;;;;;;;;;;5048931;28;20087;-67
2021/06/18 03:54:38;;;;;;;21.90;13.95;;;;;;;;;;5044348;28;20029;-66
2021/06/18 03:57:05;;;;;;;20.88;13.70;;;;;;;;;;5043428;28;20047;-67
2021/06/18 03:59:32;;;;;;;19.65;13.50;;;;;;;;;;5043124;28;20057;-66
2021/06/18 04:01:59;;;;;;;22.98;14.18;;;;;;;;;;5039299;28;20037;-67
2021/06/18 04:04:27;;;;;;;22.80;14.35;;;;;;;;;;5049704;28;20045;-67
2021/06/18 04:06:53;;;;;;;23.38;14.50;;;;;;;;;;5042218;28;20056;-67
2021/06/18 04:09:19;;;;;;;21.85;14.38;;;;;;;;;;5046689;28;20029;-67
2021/06/18 04:11:45;;;;;;;21.45;14.18;;;;;;;;;;5050486;28;20072;-67
2021/06/18 04:14:15;;;;;;;22.08;13.20;;;;;;;;;;5045616;28;20826;-67
2021/06/18 04:16:41;;;;;;;19.88;14.02;;;;;;;;;;5048956;28;20486;-67
2021/06/18 04:19:07;;;;;;;21.65;14.85;;;;;;;;;;5040382;28;20640;-67
2021/06/18 04:21:34;;;;;;;23.88;13.52;;;;;;;;;;5046504;28;20031;-67
2021/06/18 04:24:00;;;;;;;21.38;14.50;;;;;;;;;;5042072;28;20057;-67
2021/06/18 04:26:26;;;;;;;22.45;13.50;;;;;;;;;;5045782;28;20020;-67
2021/06/18 04:28:53;;;;;;;22.90;14.50;;;;;;;;;;5039517;28;20037;-67
2021/06/18 04:31:19;;;;;;;23.38;15.32;;;;;;;;;;5036370;28;20025;-67
2021/06/18 04:33:45;;;;;;;24.27;15.30;;;;;;;;;;5049122;28;20033;-68
2021/06/18 04:36:11;;;;;;;22.75;14.35;;;;;;;;;;5044041;28;20114;-67
2021/06/18 04:38:38;;;;;;;20.10;15.25;;;;;;;;;;5047921;28;20066;-67
2021/06/18 04:41:04;;;;;;;24.02;15.63;;;;;;;;;;5048345;28;20025;-67
2021/06/18 04:43:30;;;;;;;26.30;16.90;;;;;;;;;;5036825;28;20780;-67
2021/06/18 04:45:56;;;;;;;24.95;17.73;;;;;;;;;;5046677;28;20032;-67
2021/06/18 04:48:22;;;;;;;25.23;17.27;;;;;;;;;;5042428;28;20591;-66
2021/06/18 04:50:49;;;;;;;26.35;17.50;;;;;;;;;;5044379;28;20083;-67
2021/06/18 04:53:15;;;;;;;26.25;18.15;;;;;;;;;;5036935;28;20481;-66
2021/06/18 04:55:41;;;;;;;28.05;18.08;;;;;;;;;;5047917;28;20485;-66
2021/06/18 04:58:11;;;;;;;26.40;16.75;;;;;;;;;;5035907;28;20113;-67
2021/06/18 05:00:37;;;;;;;22.60;15.35;;;;;;;;;;5043740;28;20021;-67
2021/06/18 05:03:03;;;;;;;24.42;16.13;;;;;;;;;;5045291;28;20028;-67
2021/06/18 05:05:29;;;;;;;23.75;14.68;;;;;;;;;;5049366;28;20025;-67
2021/06/18 05:07:56;;;;;;;25.73;16.00;;;;;;;;;;5033907;28;20512;-67
2021/06/18 05:10:23;;;;;;;24.60;15.40;;;;;;;;;;5044030;28;20112;-74
2021/06/18 05:12:49;;;;;;;24.23;15.60;;;;;;;;;;5040442;28;20146;-74
2021/06/18 05:15:15;;;;;;;23.88;16.55;;;;;;;;;;5040422;28;20060;-74
2021/06/18 05:17:41;;;;;;;27.30;16.15;;;;;;;;;;5041438;28;20040;-74
2021/06/18 05:20:08;;;;;;;22.15;15.00;;;;;;;;;;5041732;28;20036;-74
2021/06/18 05:22:34;;;;;;;27.45;16.20;;;;;;;;;;5048245;28;20055;-73
2021/06/18 05:25:00;;;;;;;26.42;15.18;;;;;;;;;;5039733;28;20028;-74
2021/06/18 05:27:27;;;;;;;21.30;13.40;;;;;;;;;;5045982;28;20052;-74
2021/06/18 05:29:54;;;;;;;24.02;13.77;;;;;;;;;;5043813;28;20044;-74
2021/06/18 05:32:20;;;;;;;23.23;13.65;;;;;;;;;;5042249;28;20472;-73
2021/06/18 05:34:46;;;;;;;22.50;14.35;;;;;;;;;;5038490;28;20508;-74
2021/06/18 05:37:13;;;;;;;23.98;14.52;;;;;;;;;;5048143;28;20063;-74
2021/06/18 05:39:43;;;;;;;24.52;15.43;;;;;;;;;;5038106;28;20131;-75
2021/06/18 05:42:10;;;;;;;18.83;13.68;;;;;;;;;;5033586;28;20024;-74
2021/06/18 05:44:36;;;;;;;25.92;16.85;;;;;;;;;;5039786;28;20022;-74
2021/06/18 05:47:02;;;;;;;20.48;14.23;;;;;;;;;;5039946;28;20032;-73
2021/06/18 05:49:28;;;;;;;26.63;14.32;;;;;;;;;;5037591;28;20175;-74
2021/06/18 05:51:54;;;;;;;25.10;15.13;;;;;;;;;;5035527;28;20045;-75
2021/06/18 05:54:20;;;;;;;21.35;13.93;;;;;;;;;;5035952;28;20033;-75
2021/06/18 05:56:46;;;;;;;25.38;14.68;;;;;;;;;;5036635;28;20041;-75
2021/06/18 05:59:12;;;;;;;22.80;14.50;;;;;;;;;;5032139;28;20083;-74
2021/06/18 06:01:38;;;;;;;21.27;13.38;;;;;;;;;;5035897;28;20048;-74
2021/06/18 06:04:04;;;;;;;24.52;14.13;;;;;;;;;;5048025;28;20025;-75
2021/06/18 06:06:30;;;;;;;19.67;12.98;;;;;;;;;;5042664;28;20025;-75
2021/06/18 06:08:56;;;;;;;24.63;14.10;;;;;;;;;;5045708;28;20552;-76
2021/06/18 06:11:23;;;;;;;23.45;12.27;;;;;;;;;;5047621;28;20411;-75
2021/06/18 06:13:51;;;;;;;24.02;13.65;;;;;;;;;;5046820;28;20029;-75
2021/06/18 06:16:17;;;;;;;18.55;12.68;;;;;;;;;;5036518;28;20067;-72
2021/06/18 06:18:43;;;;;;;22.30;13.50;;;;;;;;;;5041069;28;20029;-75
2021/06/18 06:21:09;;;;;;;25.20;14.45;;;;;;;;;;5033281;28;20037;-75
2021/06/18 06:23:35;;;;;;;26.27;12.73;;;;;;;;;;5035628;28;20017;-74
2021/06/18 06:26:01;;;;;;;21.63;13.13;;;;;;;;;;5042067;28;20021;-74
2021/06/18 06:28:28;;;;;;;20.73;13.25;;;;;;;;;;5047206;28;20029;-72
2021/06/18 06:30:56;;;;;;;22.38;13.25;;;;;;;;;;5041264;28;20013;-76
2021/06/18 06:33:22;;;;;;;20.08;13.07;;;;;;;;;;5041825;28;20030;-75
2021/06/18 06:35:48;;;;;;;30.15;15.35;;;;;;;;;;5035083;28;20067;-75
2021/06/18 06:38:17;;;;;;;23.70;14.27;;;;;;;;;;5032461;28;20024;-74
2021/06/18 06:40:43;;;;;;;21.80;14.77;;;;;;;;;;5034464;28;20014;-77
2021/06/18 06:43:09;;;;;;;23.38;15.27;;;;;;;;;;5050286;28;20075;-75
2021/06/18 06:45:35;;;;;;;19.45;13.07;;;;;;;;;;5042134;28;20017;-75
2021/06/18 06:48:01;;;;;;;23.17;14.45;;;;;;;;;;5033333;28;20112;-76
2021/06/18 06:50:27;;;;;;;24.98;13.95;;;;;;;;;;5038726;28;20515;-73
2021/06/18 06:52:53;;;;;;;26.90;14.00;;;;;;;;;;5046729;28;20055;-73
2021/06/18 06:55:19;;;;;;;20.95;13.98;;;;;;;;;;5043539;28;20477;-74
2021/06/18 06:57:45;;;;;;;20.45;12.82;;;;;;;;;;5048095;28;20053;-73
2021/06/18 07:00:11;;;;;;;21.95;13.10;;;;;;;;;;5047134;28;20033;-73
2021/06/18 07:02:37;;;;;;;18.02;12.65;;;;;;;;;;5044606;28;20529;-74
2021/06/18 07:05:04;;;;;;;18.65;13.68;;;;;;;;;;5048993;28;20025;-73
2021/06/18 07:07:30;;;;;;;22.42;13.45;;;;;;;;;;5047904;28;20071;-73
2021/06/18 07:09:56;;;;;;;23.42;13.45;;;;;;;;;;5046937;28;20112;-73
2021/06/18 07:12:22;;;;;;;21.33;13.60;;;;;;;;;;5049042;28;20096;-73
2021/06/18 07:14:48;;;;;;;21.77;12.93;;;;;;;;;;5043706;28;20121;-73
2021/06/18 07:17:15;;;;;;;21.23;12.40;;;;;;;;;;5042660;28;20017;-73
2021/06/18 07:19:41;;;;;;;20.45;12.50;;;;;;;;;;5039185;28;20037;-74
2021/06/18 07:22:07;;;;;;;17.58;10.93;;;;;;;;;;5038588;28;20377;-73
2021/06/18 07:24:34;;;;;;;19.20;10.82;;;;;;;;;;5046821;28;20017;-73
2021/06/18 07:27:00;;;;;;;18.85;10.82;;;;;;;;;;5043092;28;20040;-74
2021/06/18 07:29:26;;;;;;;21.27;11.35;;;;;;;;;;5040655;28;20033;-73
2021/06/18 07:31:53;;;;;;;19.92;10.60;;;;;;;;;;5043917;28;20101;-74
2021/06/18 07:34:19;;;;;;;18.05;10.82;;;;;;;;;;5040034;28;20389;-73
2021/06/18 07:36:45;;;;;;;19.25;11.10;;;;;;;;;;5041439;28;20484;-73
2021/06/18 07:39:11;;;;;;;21.60;11.30;;;;;;;;;;5043971;28;20048;-73
2021/06/18 07:41:38;;;;;;;18.80;11.73;;;;;;;;;;5039840;28;20060;-74
2021/06/18 07:44:05;;;;;;;19.17;10.90;;;;;;;;;;5041664;28;20045;-73
2021/06/18 07:46:31;;;;;;;17.45;11.07;;;;;;;;;;5044535;28;20033;-73
2021/06/18 07:48:57;;;;;;;22.88;12.38;;;;;;;;;;5039312;28;20041;-73
2021/06/18 07:51:23;;;;;;;17.40;9.82;;;;;;;;;;5038104;28;20029;-73
2021/06/18 07:53:49;;;;;;;17.75;10.48;;;;;;;;;;5045921;28;20040;-74
2021/06/18 07:56:23;;;;;;;21.55;11.27;;;;;;;;;;5041473;28;20041;-73
2021/06/18 07:58:49;;;;;;;18.33;11.65;;;;;;;;;;5042236;28;20036;-74
2021/06/18 08:01:15;;;;;;;23.15;12.85;;;;;;;;;;5042780;28;20533;-73
2021/06/18 08:03:41;;;;;;;16.15;10.00;;;;;;;;;;5039473;28;20037;-73
2021/06/18 08:06:08;;;;;;;17.15;10.35;;;;;;;;;;5052970;28;20074;-74
2021/06/18 08:08:34;;;;;;;22.02;12.88;;;;;;;;;;5043583;28;20060;-73
2021/06/18 08:11:01;;;;;;;20.80;11.60;;;;;;;;;;5035282;28;20029;-73
2021/06/18 08:13:27;;;;;;;20.17;12.77;;;;;;;;;;5048444;28;20017;-73
2021/06/18 08:15:54;;;;;;;16.88;11.07;;;;;;;;;;5044524;28;20020;-74
2021/06/18 08:18:20;;;;;;;22.38;11.82;;;;;;;;;;5049513;28;20270;-73
2021/06/18 08:20:46;;;;;;;20.35;11.15;;;;;;;;;;5046945;28;20017;-74
2021/06/18 08:23:13;;;;;;;18.63;11.02;;;;;;;;;;5048983;28;20032;-74
2021/06/18 08:25:39;;;;;;;17.55;12.13;;;;;;;;;;5043268;28;20061;-73
2021/06/18 08:28:05;;;;;;;17.10;10.90;;;;;;;;;;5041559;28;20129;-73
2021/06/18 08:30:31;;;;;;;20.20;10.88;;;;;;;;;;5049627;28;20442;-73
2021/06/18 08:32:58;;;;;;;18.75;10.07;;;;;;;;;;5050219;28;20021;-73
2021/06/18 08:35:26;;;;;;;18.60;10.40;;;;;;;;;;5035129;28;20029;-73
2021/06/18 08:37:52;;;;;;;15.35;8.95;;;;;;;;;;5034882;28;20061;-74
2021/06/18 08:40:18;;;;;;;17.02;9.43;;;;;;;;;;5046193;28;20024;-73
2021/06/18 08:42:45;;;;;;;21.38;10.95;;;;;;;;;;5042361;28;20083;-73
2021/06/18 08:45:11;;;;;;;16.35;9.65;;;;;;;;;;5046382;28;20055;-73
2021/06/18 08:47:37;;;;;;;15.90;9.02;;;;;;;;;;5048341;28;20060;-73
2021/06/18 08:50:04;;;;;;;16.48;10.77;;;;;;;;;;5046497;28;20383;-73
2021/06/18 08:52:30;;;;;;;18.35;9.85;;;;;;;;;;5047628;28;20043;-73
2021/06/18 08:54:57;;;;;;;14.50;7.78;;;;;;;;;;5048249;28;20119;-73
2021/06/18 08:57:23;;;;;;;17.05;9.63;;;;;;;;;;5042288;28;20103;-73
2021/06/18 08:59:50;;;;;;;13.68;7.60;;;;;;;;;;5045976;28;20116;-74
2021/06/18 09:02:16;;;;;;;14.25;9.32;;;;;;;;;;5043461;28;20496;-73
2021/06/18 09:05:05;;;;;;;14.82;8.68;;;;;;;;;;5044777;28;20028;-74
2021/06/18 09:07:47;;;;;;;14.07;8.70;;;;;;;;;;5039670;28;20047;-74
2021/06/18 09:10:30;;;;;;;18.08;8.55;;;;;;;;;;5041570;28;20021;-75
2021/06/18 09:13:15;;;;;;;14.65;8.27;;;;;;;;;;5044056;28;20035;-73
2021/06/18 09:15:43;;;;;;;15.77;9.10;;;;;;;;;;5047962;28;20033;-74
2021/06/18 09:18:28;;;;;;;15.68;9.10;;;;;;;;;;5032415;28;20024;-73
2021/06/18 09:20:56;;;;;;;17.25;9.43;;;;;;;;;;5044930;28;20020;-73
2021/06/18 09:23:29;;;;;;;11.05;6.78;;;;;;;;;;5035527;28;20361;-74
2021/06/18 09:26:13;;;;;;;13.70;7.03;;;;;;;;;;5038227;28;20108;-72
2021/06/18 09:28:58;;;;;;;13.30;6.85;;;;;;;;;;5036623;28;20041;-73
2021/06/18 09:31:24;;;;;;;17.15;8.77;;;;;;;;;;5043619;28;20567;-73
2021/06/18 09:33:50;;;;;;;14.43;6.30;;;;;;;;;;5040023;28;20431;-74
2021/06/18 09:36:16;;;;;;;16.15;8.25;;;;;;;;;;5045060;28;20464;-73
2021/06/18 09:38:52;;;;;;;14.68;5.90;;;;;;;;;;5046359;28;20171;-74
2021/06/18 09:41:37;;;;;;;14.23;6.43;;;;;;;;;;5045131;28;20039;-73
2021/06/18 09:44:04;;;;;;;13.02;6.35;;;;;;;;;;5057009;28;20029;-73
2021/06/18 09:46:40;;;;;;;14.23;6.53;;;;;;;;;;5059690;28;20032;-74
2021/06/18 09:49:06;;;;;;;12.77;7.03;;;;;;;;;;5051732;28;20037;-74
2021/06/18 09:51:32;;;;;;;11.43;5.60;;;;;;;;;;5047080;28;20021;-73
2021/06/18 09:54:16;;;;;;;18.48;7.15;;;;;;;;;;5043639;28;20033;-74
2021/06/18 09:56:42;;;;;;;12.45;6.20;;;;;;;;;;5045587;28;20068;-74
2021/06/18 09:59:22;;;;;;;13.23;6.20;;;;;;;;;;5042389;28;20021;-73
2021/06/18 10:01:52;;;;;;;15.77;7.10;;;;;;;;;;5047546;28;20055;-74
2021/06/18 10:04:18;;;;;;;16.50;6.88;;;;;;;;;;5038545;28;20109;-73
2021/06/18 10:06:45;;;;;;;14.15;7.25;;;;;;;;;;5040476;28;20432;-74
2021/06/18 10:09:15;;;;;;;14.93;6.88;;;;;;;;;;5051070;28;20040;-73
2021/06/18 10:11:52;;;;;;;13.20;6.68;;;;;;;;;;5050055;28;20052;-74
2021/06/18 10:14:18;;;;;;;13.60;5.85;;;;;;;;;;5043421;28;20060;-74
2021/06/18 10:16:44;;;;;;;15.00;6.97;;;;;;;;;;5050624;28;20056;-74
2021/06/18 10:19:11;;;;;;;15.68;6.38;;;;;;;;;;5042368;28;20017;-74
2021/06/18 10:21:47;;;;;;;19.52;7.47;;;;;;;;;;5051978;28;20531;-74
2021/06/18 10:24:16;;;;;;;14.43;7.03;;;;;;;;;;5039842;28;20040;-75
2021/06/18 10:26:48;;;;;;;12.68;5.82;;;;;;;;;;5050643;28;20033;-73
2021/06/18 10:29:27;;;;;;;16.30;6.50;;;;;;;;;;5040700;28;20047;-73
2021/06/18 10:31:53;;;;;;;;;;;;;;;;;;5052426;28;20021;-74
2021/06/18 10:34:19;;;;;;;16.88;6.72;;;;;;;;;;5039636;28;19917;-74
2021/06/18 10:36:45;;;;;;;14.45;6.32;;;;;;;;;;5050916;28;20047;-74
2021/06/18 10:39:14;;;;;;;15.82;7.07;;;;;;;;;;5051372;28;20021;-73
2021/06/18 10:41:54;;;;;;;15.95;6.90;;;;;;;;;;5046395;28;20040;-74
2021/06/18 10:44:42;;;;;;;16.98;6.82;;;;;;;;;;5045186;28;20305;-75
2021/06/18 10:47:30;;;;;;;19.30;6.97;;;;;;;;;;5042682;28;20024;-74
2021/06/18 10:49:56;;;;;;;16.33;6.57;;;;;;;;;;5044358;28;20029;-74
2021/06/18 10:52:24;;;;;;;15.48;7.20;;;;;;;;;;5041349;28;20021;-73
2021/06/18 10:54:59;;;;;;;15.00;6.65;;;;;;;;;;5047588;28;20504;-74
2021/06/18 10:57:25;;;;;;;13.60;6.85;;;;;;;;;;5050383;28;20041;-74
2021/06/18 10:59:59;;;;;;;14.82;6.10;;;;;;;;;;5049450;28;20481;-74
2021/06/18 11:02:26;;;;;;;15.90;6.93;;;;;;;;;;5049361;28;20037;-74
2021/06/18 11:04:52;;;;;;;15.98;6.95;;;;;;;;;;5048502;28;20029;-74
2021/06/18 11:07:21;;;;;;;12.85;6.28;;;;;;;;;;5042656;28;20388;-74
2021/06/18 11:09:48;;;;;;;15.65;6.88;;;;;;;;;;5045916;28;20167;-74
2021/06/18 11:12:27;;;;;;;15.77;6.35;;;;;;;;;;5043427;28;20028;-74
2021/06/18 11:15:04;;;;;;;14.00;6.53;;;;;;;;;;5048787;28;20032;-74
2021/06/18 11:17:58;;;;;;;14.85;6.00;;;;;;;;;;5048942;28;20032;-74
2021/06/18 11:20:25;;;;;;;15.45;7.10;;;;;;;;;;5040737;28;20040;-74
2021/06/18 11:22:55;;;;;;;14.70;6.05;;;;;;;;;;5048385;28;20036;-74
2021/06/18 11:25:43;;;;;;;12.60;6.25;;;;;;;;;;5038603;28;20034;-74
2021/06/18 11:28:21;;;;;;;16.83;5.97;;;;;;;;;;5047991;28;20033;-74
2021/06/18 11:30:53;;;;;;;16.00;6.20;;;;;;;;;;5048565;28;20037;-74
2021/06/18 11:33:37;;;;;;;11.40;5.40;;;;;;;;;;5047069;28;20021;-74
2021/06/18 11:36:03;;;;;;;13.90;5.35;;;;;;;;;;5040200;28;20033;-74
2021/06/18 11:38:30;;;;;;;15.38;6.43;;;;;;;;;;5049721;28;20017;-74
2021/06/18 11:41:00;;;;;;;14.85;5.80;;;;;;;;;;5036094;28;20075;-75
2021/06/18 11:43:27;;;;;;;15.30;5.15;;;;;;;;;;5047360;28;20025;-74
2021/06/18 11:45:53;;;;;;;14.07;5.25;;;;;;;;;;5035210;28;20063;-74
2021/06/18 11:48:19;;;;;;;14.65;5.22;;;;;;;;;;5045505;28;20503;-74
2021/06/18 11:50:46;;;;;;;15.45;5.25;;;;;;;;;;5050190;28;20116;-74
2021/06/18 11:53:12;;;;;;;14.65;5.03;;;;;;;;;;5035543;28;20464;-75
2021/06/18 11:55:40;;;;;;;15.30;5.13;;;;;;;;;;5050035;28;20060;-74
2021/06/18 11:58:06;;;;;;;13.32;5.03;;;;;;;;;;5047625;28;20086;-75
2021/06/18 12:00:37;;;;;;;14.68;5.47;;;;;;;;;;5039683;28;20040;-75
2021/06/18 12:03:04;;;;;;;14.20;5.00;;;;;;;;;;5046279;28;20373;-75
2021/06/18 12:05:31;;;;;;;15.73;5.25;;;;;;;;;;5040137;28;20041;-75
2021/06/18 12:07:57;;;;;;;12.45;5.18;;;;;;;;;;5042307;28;20029;-74
2021/06/18 12:10:25;;;;;;;15.50;5.80;;;;;;;;;;5042236;28;20048;-74
2021/06/18 12:12:51;;;;;;;15.30;5.85;;;;;;;;;;5047233;28;20033;-75
2021/06/18 12:15:21;;;;;;;17.50;5.40;;;;;;;;;;5043476;28;20039;-74
2021/06/18 12:17:48;;;;;;;12.90;5.30;;;;;;;;;;5046035;28;20071;-75
2021/06/18 12:20:25;;;;;;;9.93;4.68;;;;;;;;;;5039208;28;20022;-75
2021/06/18 12:22:53;;;;;;;15.32;5.47;;;;;;;;;;5042363;28;20067;-75
2021/06/18 12:25:21;;;;;;;13.35;4.95;;;;;;;;;;5044925;28;20473;-75
2021/06/18 12:27:47;;;;;;;12.80;5.13;;;;;;;;;;5044710;28;20414;-75
2021/06/18 12:30:14;;;;;;;9.32;3.40;;;;;;;;;;5038972;28;21319;-75
2021/06/18 12:32:41;;;;;;;10.05;3.47;;;;;;;;;;5042627;28;20044;-75
2021/06/18 12:35:08;;;;;;;9.13;2.80;;;;;;;;;;5041669;28;20024;-74
2021/06/18 12:37:35;;;;;;;10.27;3.13;;;;;;;;;;5036962;28;20025;-75
2021/06/18 12:40:05;;;;;;;9.55;3.03;;;;;;;;;;5039788;28;20025;-75
2021/06/18 12:42:48;;;;;;;11.45;3.20;;;;;;;;;;5039506;28;20025;-75
2021/06/18 12:45:30;;;;;;;11.25;3.42;;;;;;;;;;5059195;28;20037;-75
2021/06/18 12:48:12;;;;;;;9.32;3.67;;;;;;;;;;5043687;28;20044;-75
2021/06/18 12:50:43;;;;;;;12.57;3.72;;;;;;;;;;5044530;28;20530;-74
2021/06/18 12:53:11;;;;;;;12.02;3.95;;;;;;;;;;5046178;28;20028;-75
2021/06/18 12:55:39;;;;;;;11.87;3.90;;;;;;;;;;5045284;28;20021;-75
2021/06/18 12:58:05;;;;;;;11.95;3.90;;;;;;;;;;5040829;28;20790;-75
2021/06/18 13:00:32;;;;;;;10.38;4.07;;;;;;;;;;5046405;28;20048;-75
2021/06/18 13:02:58;;;;;;;12.52;4.22;;;;;;;;;;5045843;28;20471;-73
2021/06/18 13:05:26;;;;;;;11.27;3.97;;;;;;;;;;5051102;28;20078;-73
2021/06/18 13:07:52;;;;;;;11.30;3.78;;;;;;;;;;5044542;28;20026;-72
2021/06/18 13:10:18;;;;;;;10.00;3.80;;;;;;;;;;5039790;28;20057;-73
2021/06/18 13:12:54;;;;;;;12.68;4.00;;;;;;;;;;5043987;28;20546;-72
2021/06/18 13:15:30;;;;;;;9.05;3.35;;;;;;;;;;5040947;28;20032;-73
2021/06/18 13:17:57;;;;;;;11.90;3.72;;;;;;;;;;5041164;28;20033;-73
2021/06/18 13:20:34;;;;;;;10.02;3.80;;;;;;;;;;5059889;28;20419;-72
2021/06/18 13:23:00;;;;;;;8.10;3.33;;;;;;;;;;5045739;28;20108;-73
2021/06/18 13:25:33;;;;;;;10.48;3.72;;;;;;;;;;5047280;28;20017;-72
2021/06/18 13:28:04;;;;;;;11.77;3.90;;;;;;;;;;5046251;28;20022;-72
2021/06/18 13:30:30;;;;;;;11.02;3.65;;;;;;;;;;5046567;28;20021;-72
2021/06/18 13:32:57;;;;;;;11.07;4.32;;;;;;;;;;5047235;28;20027;-72
2021/06/18 13:35:26;;;;;;;10.27;4.20;;;;;;;;;;5040706;28;20020;-71
2021/06/18 13:38:03;;;;;;;9.57;3.53;;;;;;;;;;5061879;28;20025;-72
2021/06/18 13:40:48;;;;;;;10.23;4.30;;;;;;;;;;5044152;28;20823;-72
2021/06/18 13:43:14;;;;;;;11.15;4.00;;;;;;;;;;5038652;28;20028;-71
2021/06/18 13:45:40;;;;;;;12.30;4.75;;;;;;;;;;5044324;28;20025;-72
2021/06/18 13:48:06;;;;;;;12.82;4.53;;;;;;;;;;5044278;28;20493;-72
2021/06/18 13:50:41;;;;;;;12.35;4.75;;;;;;;;;;5040481;28;20092;-72
2021/06/18 13:53:07;;;;;;;8.93;3.92;;;;;;;;;;5057652;28;20527;-74
2021/06/18 13:55:34;;;;;;;11.98;3.58;;;;;;;;;;5047042;28;20036;-73
2021/06/18 13:58:00;;;;;;;13.82;4.53;;;;;;;;;;5041889;28;20040;-73
2021/06/18 14:00:26;;;;;;;10.35;3.92;;;;;;;;;;5046374;28;20071;-72
2021/06/18 14:02:55;;;;;;;12.85;4.38;;;;;;;;;;5045553;28;20040;-73
2021/06/18 14:05:21;;;;;;;10.27;4.10;;;;;;;;;;5046787;28;20025;-73
2021/06/18 14:07:47;;;;;;;12.18;4.43;;;;;;;;;;5043348;28;20033;-73
2021/06/18 14:10:14;;;;;;;10.73;4.38;;;;;;;;;;5043609;28;20033;-73
2021/06/18 14:12:41;;;;;;;12.70;4.38;;;;;;;;;;5044229;28;20021;-72
2021/06/18 14:15:09;;;;;;;10.60;4.15;;;;;;;;;;5043306;28;20481;-72
2021/06/18 14:17:36;;;;;;;10.80;4.10;;;;;;;;;;5040307;28;20311;-72
2021/06/18 14:20:04;;;;;;;8.85;3.90;;;;;;;;;;5042144;28;20030;-72
2021/06/18 14:22:30;;;;;;;11.25;3.90;;;;;;;;;;5038637;28;20096;-72
2021/06/18 14:24:56;;;;;;;8.70;4.00;;;;;;;;;;5039442;28;20104;-72
2021/06/18 14:27:22;;;;;;;11.15;4.20;;;;;;;;;;5041846;28;20377;-72
2021/06/18 14:29:48;;;;;;;12.02;4.10;;;;;;;;;;5039779;28;20037;-73
2021/06/18 14:32:16;;;;;;;12.18;4.38;;;;;;;;;;5045692;28;20031;-73